East Canyon Creek Flow Near ECWRF

♦ The data used to create the chart above are available in the table below.
♦ You may freely copy and paste the table below for further analysis.
♦ If higher frequency or longer history data are required, click here for the USGS NWISWeb page. The East Canyon Creek gage below the East Canyon Water Reclamation Facility is 10133800.
♦ For ECWRF data, contact SBWRD main office at 435.649.7993.
♦ The Utah Division of Wildlife Resources has advised that a minimum flow of 3.5 cfs, preferably 6.0 cfs, is required to support East Canyon Creek's cold-water fishery.

Disclaimer
The Snyderville Basin Water Reclamation District provides no warranty, expressed or implied, as to the relevance, accuracy, reliability or completeness of the data. The link to the USGS NWISWeb page is for convenience only. The Snyderville Basin Water Reclamation District does not have any control over the collection or maintenance of the stream flow data at the East Canyon Creek gage below ECWRF and cannot guarantee the relevance, timeliness, or accuracy of that data.

Provisional Flow Data (cfs)
Date Downstream Flow ECWRF Flow Upstream Flow % ECWRF Flow
7/27/2022 6.86 4.17 2.69 60.79
7/28/2022 8.14 4.39 3.75 53.93
7/29/2022 8.97 4.67 4.30 52.06
7/30/2022 9.44 4.59 4.85 48.62
7/31/2022 8.41 4.35 4.06 51.72
8/1/2022 8.73 4.19 4.54 48.00
8/2/2022 11 4.3 6.7 39.09
8/3/2022 10.1 4.19 5.91 41.49
8/4/2022 9.58 4.12 5.46 43.01
8/5/2022 12 4.32 7.68 36.00
8/6/2022 14.9 4.48 10.42 30.07
8/7/2022 14.3 4.29 10.01 30.0
8/8/2022 12.3 4.07 8.23 33.09
8/9/2022 11.1 3.84 7.26 34.59
8/10/2022 11 3.79 7.21 34.45
8/11/2022 12.3 3.96 8.34 32.20
8/12/2022 15.2 4.19 11.01 27.57
8/13/2022 23.4 4.7 18.7 20.09
8/14/2022 30.2 4.83 25.37 15.99
8/15/2022 18.4 4.32 14.08 23.48
8/16/2022 16.2 4.23 11.97 26.11
8/17/2022 15.3 4.13 11.17 26.99
8/18/2022 14 4.06 9.94 29.00
8/19/2022 13.7 4.08 9.62 29.78
8/20/2022 14.4 4.15 10.25 28.82
8/21/2022 14.6 4.15 10.45 28.42
8/22/2022 13.8 3.85 9.95 27.90
8/23/2022 12.3 3.77 8.53 30.65
8/24/2022 12.9 3.76 9.14 29.15
8/25/2022 13.8 3.79 10.01 27.46
8/26/2022 13.5 3.84 9.66 28.44
8/27/2022 13 3.95 9.05 30.38
8/28/2022 11.3 3.89 7.41 34.42
8/29/2022 11.4 3.67 7.73 32.19
8/30/2022 11.7 3.6 8.1 30.77
8/31/2022 10.4 3.48 6.92 33.46
9/1/2022 10.3 3.22 7.08 31.26
9/2/2022 9.64 3.11 6.53 32.26
9/3/2022 9.72 3.39 6.33 34.88
9/4/2022 9.54 3.43 6.11 35.95
9/5/2022 9.12 2.9 6.22 31.80
9/6/2022 8.67 2.65 6.02 30.57
9/7/2022 9.61 2.66 6.95 27.68
9/8/2022 9.23 3.1 6.13 33.59
9/9/2022 8.59 3.15 5.44 36.67
9/10/2022 7.03 3.15 3.88 44.81
9/11/2022 9.3 3.14 6.16 33.76
9/12/2022 8.13 3.02 5.11 37.15
9/13/2022 8.79 2.98 5.81 33.90
9/14/2022 11.8 3.13 8.67 26.53
9/15/2022 11.1 3 8.1 27.03
9/16/2022 12.2 3.11 9.09 25.49
9/17/2022 12.6 3.2 9.4 25.40
9/18/2022 13 3.18 9.82 24.46
9/19/2022 12.5 3.09 9.41 24.72
9/20/2022 12.3 3.04 9.26 24.72
9/21/2022 11.2 2.96 8.24 26.43
9/22/2022 12.3 2.93 9.37 23.82
9/23/2022 12.3 2.97 9.33 24.15
9/24/2022 12.9 3.2 9.7 24.81
9/25/2022 13.8 3.24 10.56 23.48
9/26/2022 13.1 2.96 10.14 22.60
9/27/2022 12.5 2.94 9.56 23.52